createdAt,value
2022-11-25T00:03:16.281Z,4.75
2022-11-25T00:08:17.895Z,5.03
2022-11-25T00:13:19.515Z,4.90
2022-11-25T00:18:21.485Z,4.78
2022-11-25T00:23:23.543Z,4.65
2022-11-25T00:28:25.207Z,5.35
2022-11-25T00:33:26.794Z,5.20
2022-11-25T00:38:28.793Z,6.03
2022-11-25T00:43:48.804Z,4.93
2022-11-25T00:48:50.419Z,5.07
2022-11-25T00:53:57.451Z,5.47
2022-11-25T00:59:00.512Z,6.30
2022-11-25T01:04:02.580Z,6.20
2022-11-25T01:09:05.442Z,6.50
2022-11-25T01:14:07.825Z,6.65
2022-11-25T01:19:11.207Z,5.88
2022-11-25T01:24:14.950Z,5.23
2022-11-25T01:29:18.637Z,5.30
2022-11-25T01:34:24.489Z,6.07
2022-11-25T01:39:31.939Z,5.20
2022-11-25T01:44:36.371Z,5.30
2022-11-25T01:49:40.989Z,5.10
2022-11-25T01:54:51.270Z,5.60
2022-11-25T01:59:57.623Z,5.05
2022-11-25T02:05:04.171Z,5.72
2022-11-25T02:10:10.888Z,5.18
2022-11-25T02:15:14.049Z,4.40
2022-11-25T02:20:21.645Z,5.68
2022-11-25T02:25:26.117Z,5.32
2022-11-25T02:30:27.794Z,5.45
2022-11-25T02:35:34.419Z,5.15
2022-11-25T02:40:56.478Z,5.10
2022-11-25T02:46:02.911Z,5.22
2022-11-25T02:51:05.790Z,5.05
2022-11-25T02:56:08.775Z,4.40
2022-11-25T03:01:10.962Z,4.30
2022-11-25T03:06:12.933Z,4.45
2022-11-25T03:11:15.157Z,4.38
2022-11-25T03:16:16.864Z,4.05
2022-11-25T03:21:18.515Z,4.18
2022-11-25T03:26:20.215Z,4.20
2022-11-25T03:31:21.905Z,4.30
2022-11-25T03:36:23.711Z,3.78
2022-11-25T03:41:25.359Z,3.75
2022-11-25T03:46:27.068Z,4.28
2022-11-25T03:51:28.890Z,3.85
2022-11-25T03:56:30.553Z,3.97
2022-11-25T04:01:32.271Z,4.18
2022-11-25T04:06:33.999Z,4.25
2022-11-25T04:11:54.166Z,4.40
2022-11-25T04:16:56.140Z,4.38
2022-11-25T04:22:01.233Z,4.63
2022-11-25T04:27:02.948Z,4.20
2022-11-25T04:32:04.878Z,4.38
2022-11-25T04:37:06.548Z,4.70
2022-11-25T04:42:27.087Z,5.97
2022-11-25T04:47:29.972Z,5.13
2022-11-25T04:52:31.897Z,5.32
2022-11-25T04:57:33.645Z,4.93
2022-11-25T05:02:36.020Z,4.70
2022-11-25T05:07:38.669Z,5.35
2022-11-25T05:12:41.226Z,5.50
2022-11-25T05:17:42.848Z,5.32
2022-11-25T05:22:44.509Z,4.78
2022-11-25T05:27:46.335Z,4.80
2022-11-25T05:32:47.985Z,4.72
2022-11-25T05:37:50.654Z,5.25
2022-11-25T05:42:52.316Z,5.15
2022-11-25T05:47:55.064Z,5.10
2022-11-25T05:52:56.705Z,5.50
2022-11-25T05:58:00.046Z,5.10
2022-11-25T06:03:01.856Z,5.03
2022-11-25T06:08:03.744Z,4.80
2022-11-25T06:13:05.399Z,5.78
2022-11-25T06:18:07.077Z,5.00
2022-11-25T06:23:09.698Z,5.47
2022-11-25T06:28:13.053Z,6.10
2022-11-25T06:33:15.160Z,6.18
2022-11-25T06:38:16.846Z,6.97
2022-11-25T06:43:18.480Z,6.72
2022-11-25T06:48:20.174Z,7.35
2022-11-25T06:53:24.196Z,7.38
2022-11-25T07:03:38.206Z,7.07
2022-11-25T07:08:40.421Z,7.30
2022-11-25T07:13:42.137Z,7.05
2022-11-25T07:18:43.809Z,7.72
2022-11-25T07:23:46.638Z,7.03
2022-11-25T07:28:50.291Z,7.65
2022-11-25T07:33:57.553Z,8.13
2022-11-25T07:39:01.486Z,7.80
2022-11-25T07:44:05.705Z,7.53
2022-11-25T07:54:12.667Z,6.22
2022-11-25T07:59:16.831Z,8.05
2022-11-25T08:04:20.778Z,7.70
2022-11-25T08:14:26.013Z,8.57
2022-11-25T08:19:31.426Z,9.05
2022-11-25T08:24:33.267Z,8.90
2022-11-25T08:29:35.283Z,10.05
2022-11-25T08:34:37.175Z,9.93
2022-11-25T08:39:54.328Z,9.45
2022-11-25T08:44:56.984Z,8.82
2022-11-25T08:49:58.952Z,8.40
2022-11-25T08:55:00.706Z,7.53
2022-11-25T09:00:04.391Z,7.65
2022-11-25T09:05:06.149Z,7.00
2022-11-25T09:10:13.026Z,6.97
2022-11-25T09:15:14.707Z,7.25
2022-11-25T09:20:16.430Z,6.05
2022-11-25T09:25:18.246Z,5.60
2022-11-25T09:30:20.003Z,6.05
2022-11-25T09:35:23.339Z,6.38
2022-11-25T09:40:43.818Z,4.60
2022-11-25T09:46:22.161Z,6.38
2022-11-25T09:51:40.413Z,5.57
2022-11-25T09:56:55.774Z,5.38
2022-11-25T10:02:10.096Z,5.45
2022-11-25T10:07:25.106Z,6.38
2022-11-25T10:12:34.398Z,4.93
2022-11-25T10:17:44.370Z,4.90
2022-11-25T10:22:53.819Z,4.53
2022-11-25T10:27:59.868Z,4.28
2022-11-25T10:33:07.197Z,4.38
2022-11-25T10:38:18.942Z,3.55
2022-11-25T10:43:21.552Z,4.00
2022-11-25T10:48:44.783Z,4.38
2022-11-25T10:54:12.013Z,3.10
2022-11-25T10:59:22.336Z,3.58
2022-11-25T11:04:24.131Z,3.28
2022-11-25T11:09:40.700Z,2.58
2022-11-25T11:14:42.537Z,2.22
2022-11-25T11:20:07.153Z,2.53
2022-11-25T11:30:26.699Z,3.23
2022-11-25T11:35:46.303Z,3.08
2022-11-25T11:40:55.951Z,2.72
2022-11-25T11:46:03.467Z,2.80
2022-11-25T11:51:13.757Z,2.38
2022-11-25T11:56:36.565Z,2.33
2022-11-25T12:02:11.556Z,2.40
2022-11-25T12:07:50.164Z,2.00
2022-11-25T12:13:00.033Z,2.55
2022-11-25T12:18:23.295Z,2.35
2022-11-25T12:23:58.786Z,2.72
2022-11-25T12:29:06.139Z,2.35
2022-11-25T12:34:22.918Z,2.60
2022-11-25T12:39:34.242Z,3.00
2022-11-25T12:45:00.748Z,2.63
2022-11-25T12:50:03.051Z,3.10
2022-11-25T12:55:22.093Z,11.52
2022-11-25T13:00:43.408Z,2.60
2022-11-25T13:06:26.578Z,2.50
2022-11-25T13:12:06.516Z,3.00
2022-11-25T13:17:12.071Z,2.95
2022-11-25T13:22:34.363Z,2.80
2022-11-25T13:27:40.145Z,2.20
2022-11-25T13:32:42.318Z,2.85
2022-11-25T13:37:44.048Z,4.32
2022-11-25T13:42:48.628Z,3.15
2022-11-25T13:47:50.371Z,2.45
2022-11-25T13:52:58.367Z,2.55
2022-11-25T13:58:11.351Z,3.47
2022-11-25T14:03:19.194Z,2.67
2022-11-25T14:08:34.478Z,2.95
2022-11-25T14:14:01.199Z,2.83
2022-11-25T14:19:55.756Z,2.38
2022-11-25T14:25:30.253Z,3.28
2022-11-25T14:30:34.020Z,3.00
2022-11-25T14:35:53.868Z,2.70
2022-11-25T14:41:16.391Z,2.63
2022-11-25T14:46:21.348Z,2.53
2022-11-25T14:51:25.983Z,2.65
2022-11-25T14:56:33.787Z,2.80
2022-11-25T15:01:37.153Z,3.05
2022-11-25T15:06:42.970Z,3.03
2022-11-25T15:11:45.023Z,2.88
2022-11-25T15:16:47.222Z,2.88
2022-11-25T15:32:37.441Z,2.80
2022-11-25T15:37:39.103Z,3.35
2022-11-25T15:42:42.440Z,4.93
2022-11-25T15:47:45.007Z,4.30
2022-11-25T15:52:51.688Z,3.75
2022-11-25T15:57:56.220Z,3.53
2022-11-25T16:02:58.482Z,2.85
2022-11-25T16:08:18.790Z,3.08
2022-11-25T16:13:23.596Z,3.30
2022-11-25T16:18:41.613Z,2.58
2022-11-25T16:23:49.550Z,3.30
2022-11-25T16:28:54.498Z,3.50
2022-11-25T16:34:12.471Z,3.28
2022-11-25T16:39:14.269Z,3.75
2022-11-25T16:44:22.146Z,3.42
2022-11-25T16:49:25.698Z,3.53
2022-11-25T16:54:27.402Z,4.43
2022-11-25T16:59:39.416Z,3.55
2022-11-25T17:04:41.364Z,3.53
2022-11-25T17:09:44.260Z,3.33
2022-11-25T17:14:48.030Z,4.68
2022-11-25T17:19:51.323Z,3.35
2022-11-25T17:24:53.963Z,3.35
2022-11-25T17:29:58.593Z,4.18
2022-11-25T17:35:00.642Z,3.22
2022-11-25T17:40:02.266Z,3.75
2022-11-25T17:45:09.613Z,3.63
2022-11-25T17:50:20.374Z,3.55
2022-11-25T17:55:22.895Z,3.78
2022-11-25T18:00:24.847Z,3.67
2022-11-25T18:05:27.006Z,3.95
2022-11-25T18:10:28.736Z,4.32
2022-11-25T18:15:33.873Z,5.30
2022-11-25T18:20:35.603Z,6.53
2022-11-25T18:25:40.147Z,5.75
2022-11-25T18:30:42.104Z,6.10
2022-11-25T18:35:45.486Z,4.60
2022-11-25T18:40:52.005Z,4.55
2022-11-25T18:45:55.795Z,3.50
2022-11-25T18:50:58.663Z,3.55
2022-11-25T18:56:00.463Z,4.75
2022-11-25T19:01:05.535Z,3.60
2022-11-25T19:06:10.231Z,3.47
2022-11-25T19:11:23.068Z,3.38
2022-11-25T19:16:25.480Z,3.30
2022-11-25T19:21:27.431Z,3.47
2022-11-25T19:26:34.242Z,3.80
2022-11-25T19:31:36.118Z,3.72
2022-11-25T19:36:37.967Z,4.15
2022-11-25T19:41:39.666Z,4.55
2022-11-25T19:47:13.668Z,5.95
2022-11-25T19:52:16.059Z,4.82
2022-11-25T19:57:21.071Z,4.93
2022-11-25T20:02:26.397Z,5.75
2022-11-25T20:07:30.043Z,5.78
2022-11-25T20:12:31.758Z,4.03
2022-11-25T20:17:36.689Z,5.53
2022-11-25T20:22:42.923Z,5.20
2022-11-25T20:27:44.704Z,5.40
2022-11-25T20:32:46.546Z,5.10
2022-11-25T20:37:57.603Z,5.68
2022-11-25T20:42:59.575Z,5.70
2022-11-25T20:48:01.445Z,6.70
2022-11-25T20:53:03.261Z,7.65
2022-11-25T20:58:19.167Z,8.18
2022-11-25T21:03:21.278Z,8.65
2022-11-25T21:08:25.160Z,7.88
2022-11-25T21:13:29.678Z,8.13
2022-11-25T21:18:32.271Z,7.13
2022-11-25T21:23:36.183Z,7.85
2022-11-25T21:28:42.363Z,8.90
2022-11-25T21:33:45.744Z,8.02
2022-11-25T21:38:49.775Z,8.63
2022-11-25T21:43:51.508Z,8.85
2022-11-25T21:48:53.343Z,7.95
2022-11-25T21:53:55.037Z,8.43
2022-11-25T21:58:58.765Z,7.60
2022-11-25T22:04:00.393Z,10.63
2022-11-25T22:09:02.133Z,9.32
2022-11-25T22:14:06.997Z,9.35
2022-11-25T22:19:21.755Z,9.80
2022-11-25T22:24:23.797Z,9.20
2022-11-25T22:29:32.813Z,9.23
2022-11-25T22:34:34.509Z,9.13
2022-11-25T22:39:36.112Z,10.20
2022-11-25T22:44:42.929Z,10.52
2022-11-25T22:49:47.141Z,10.73
2022-11-25T22:59:50.916Z,9.77
2022-11-25T23:04:54.927Z,9.88
2022-11-25T23:09:56.794Z,9.43
2022-11-25T23:14:59.454Z,9.88
2022-11-25T23:20:01.095Z,9.43
2022-11-25T23:25:05.847Z,8.98
2022-11-25T23:30:08.009Z,10.55
2022-11-25T23:35:15.268Z,10.25
2022-11-25T23:40:22.199Z,9.38
2022-11-25T23:45:26.467Z,10.52
2022-11-25T23:50:34.004Z,10.38
2022-11-25T23:55:37.133Z,10.80
